Time;durP1;ratioP1;P1;durP2;ratioP2;P2;SDS_P1;SDS_P2;PMS_P1;PMS_P2;Temp;Humidity;BMP_temperature;BMP_pressure;BME280_temperature;BME280_humidity;BME280_pressure;Samples;Min_cycle;Max_cycle;Signal;HPM_P1;HPM_P2
2023/01/05 00:00:55;;;;;;;6.60;4.92;;;;;;;4.85;69.19;100622.66;1711272;82;21292;-78
2023/01/05 00:04:03;;;;;;;6.85;4.83;;;;;;;4.82;69.08;100618.34;1726049;82;21219;-78
2023/01/05 00:07:09;;;;;;;6.92;4.85;;;;;;;4.87;69.06;100621.52;1723683;82;21770;-79
2023/01/05 00:23:51;;;;;;;4.65;3.42;;;;;;;4.70;69.43;100590.08;1734818;82;21522;-80
2023/01/05 00:26:57;;;;;;;7.35;4.00;;;;;;;4.66;69.34;100584.55;1709882;82;21258;-80
2023/01/05 00:30:03;;;;;;;4.40;3.60;;;;;;;4.54;69.77;100587.84;1728214;82;21291;-80
2023/01/05 00:33:09;;;;;;;4.05;3.10;;;;;;;4.52;69.87;100583.06;1717004;82;21842;-78
2023/01/05 00:36:18;;;;;;;4.80;3.30;;;;;;;4.53;70.03;100575.28;1712262;82;21204;-78
2023/01/05 00:39:24;;;;;;;4.42;3.08;;;;;;;4.47;70.01;100570.38;1725753;81;22503;-79
2023/01/05 00:42:31;;;;;;;4.30;3.27;;;;;;;4.43;69.85;100568.94;1707692;83;21230;-79
2023/01/05 00:45:37;;;;;;;3.77;2.98;;;;;;;4.36;70.17;100564.02;1720165;82;21267;-79
2023/01/05 00:48:44;;;;;;;7.00;3.35;;;;;;;4.43;69.87;100563.52;1716780;82;21381;-78
2023/01/05 00:51:50;;;;;;;3.87;3.10;;;;;;;4.46;69.36;100549.70;1727792;81;21247;-78
2023/01/05 00:54:56;;;;;;;7.15;3.75;;;;;;;4.36;69.63;100543.71;1716673;82;21245;-79
2023/01/05 00:58:01;;;;;;;7.00;3.77;;;;;;;4.38;69.58;100546.81;1719568;82;21259;-79
2023/01/05 01:01:07;;;;;;;4.12;3.30;;;;;;;4.20;70.06;100528.42;1729806;80;21268;-79
2023/01/05 01:04:14;;;;;;;5.50;3.35;;;;;;;4.20;70.19;100525.70;1718659;82;21215;-79
2023/01/05 01:07:20;;;;;;;4.58;3.17;;;;;;;4.28;69.96;100523.22;1716846;81;21203;-78
2023/01/05 01:10:28;;;;;;;6.83;3.70;;;;;;;4.27;69.69;100526.03;1719484;82;21243;-78
2023/01/05 01:13:34;;;;;;;7.17;3.95;;;;;;;4.15;70.22;100519.83;1725467;82;21259;-79
2023/01/05 01:16:40;;;;;;;4.95;3.20;;;;;;;4.16;70.39;100508.00;1720189;81;21204;-78
2023/01/05 01:19:46;;;;;;;7.53;3.20;;;;;;;4.18;70.34;100501.95;1714519;82;21232;-78
2023/01/05 01:22:52;;;;;;;5.83;3.22;;;;;;;4.11;70.68;100498.06;1718904;81;21203;-78
2023/01/05 01:25:58;;;;;;;5.30;3.40;;;;;;;4.09;70.90;100501.37;1727548;82;21263;-78
2023/01/05 01:29:06;;;;;;;5.08;3.08;;;;;;;4.00;71.08;100498.09;1716249;82;21240;-78
2023/01/05 01:32:13;;;;;;;5.60;3.50;;;;;;;3.97;71.27;100494.31;1708960;82;21279;-78
2023/01/05 01:35:19;;;;;;;5.75;3.08;;;;;;;3.91;71.38;100486.22;1720406;82;21217;-78
2023/01/05 01:38:25;;;;;;;5.72;2.90;;;;;;;3.88;71.48;100495.94;1727363;81;21294;-78
2023/01/05 01:41:31;;;;;;;8.60;3.10;;;;;;;3.71;71.81;100498.69;1720853;82;21221;-79
2023/01/05 01:45:08;;;;;;;5.00;3.30;;;;;;;3.81;71.85;100486.60;1726750;81;21260;-78
2023/01/05 01:48:15;;;;;;;4.92;2.83;;;;;;;3.79;72.00;100482.69;1721025;81;21207;-78
2023/01/05 01:51:34;;;;;;;5.83;3.27;;;;;;;3.87;71.87;100470.38;1716661;82;22047;-78
2023/01/05 01:54:40;;;;;;;6.75;3.70;;;;;;;3.88;71.81;100470.73;1715863;82;21546;-78
2023/01/05 01:57:47;;;;;;;5.65;3.80;;;;;;;3.70;72.09;100457.75;1713787;82;21248;-78
2023/01/05 02:00:53;;;;;;;6.10;3.77;;;;;;;3.72;72.23;100455.80;1723944;81;21246;-78
2023/01/05 02:03:59;;;;;;;6.87;3.67;;;;;;;3.72;72.31;100457.15;1715781;82;21778;-78
2023/01/05 02:07:06;;;;;;;6.47;3.77;;;;;;;3.45;73.23;100462.15;1726771;81;21247;-78
2023/01/05 02:10:11;;;;;;;7.72;4.12;;;;;;;3.46;73.72;100462.51;1718524;81;21750;-79
2023/01/05 02:13:43;;;;;;;5.15;3.62;;;;;;;3.46;73.80;100457.10;1727895;81;21248;-79
2023/01/05 02:17:16;;;;;;;6.00;4.12;;;;;;;3.31;74.48;100440.30;1725187;82;21228;-79
2023/01/05 02:20:35;;;;;;;7.67;4.05;;;;;;;3.25;74.65;100440.33;1720256;82;21760;-80
2023/01/05 02:24:15;;;;;;;5.70;3.77;;;;;;;3.33;74.66;100449.98;1711466;82;21272;-78
2023/01/05 02:27:46;;;;;;;6.35;3.90;;;;;;;3.33;74.58;100449.98;1719469;82;21197;-78
2023/01/05 02:31:21;;;;;;;6.53;4.10;;;;;;;3.46;74.60;100435.47;1726850;82;21295;-79
2023/01/05 02:34:47;;;;;;;5.33;4.12;;;;;;;3.51;74.39;100434.59;1725552;82;21784;-78
2023/01/05 02:38:04;;;;;;;8.10;4.53;;;;;;;3.54;74.17;100437.05;1713981;82;21234;-78
2023/01/05 02:41:20;;;;;;;6.87;4.37;;;;;;;3.48;74.20;100421.31;1728489;81;21191;-78
2023/01/05 02:44:25;;;;;;;5.67;3.80;;;;;;;3.42;74.36;100419.13;1722343;81;21224;-78
2023/01/05 02:47:44;;;;;;;7.72;5.03;;;;;;;3.27;74.68;100414.50;1717568;82;21283;-78
2023/01/05 02:51:00;;;;;;;5.50;4.13;;;;;;;3.28;74.65;100418.92;1719565;82;21223;-80
2023/01/05 02:54:28;;;;;;;5.92;4.00;;;;;;;3.42;74.24;100412.37;1726730;81;21799;-78
2023/01/05 02:57:46;;;;;;;6.80;4.10;;;;;;;3.21;74.59;100402.36;1726436;82;21275;-80
2023/01/05 03:00:56;;;;;;;7.45;4.30;;;;;;;3.24;74.34;100381.81;1727538;82;21291;-79
2023/01/05 03:04:13;;;;;;;6.75;4.25;;;;;;;3.13;74.84;100389.96;1726925;82;21222;-80
2023/01/05 03:07:27;;;;;;;7.70;4.45;;;;;;;3.20;74.72;100368.67;1725305;82;21302;-79
2023/01/05 03:14:20;;;;;;;7.83;4.83;;;;;;;2.98;75.56;100372.31;1717533;81;21272;-78
2023/01/05 03:17:33;;;;;;;8.60;4.97;;;;;;;2.96;75.82;100358.05;1733430;81;21263;-78
2023/01/05 03:20:41;;;;;;;8.35;5.08;;;;;;;2.94;76.19;100355.98;1727199;82;21220;-79
2023/01/05 03:38:04;;;;;;;7.53;5.10;;;;;;;3.03;76.93;100329.55;1711567;82;21232;-80
2023/01/05 03:41:12;;;;;;;8.03;4.80;;;;;;;3.26;76.43;100337.09;1718650;81;21232;-78
2023/01/05 03:44:20;;;;;;;9.80;5.37;;;;;;;3.13;76.85;100327.80;1710821;82;21298;-80
2023/01/05 03:47:26;;;;;;;8.63;4.60;;;;;;;3.20;76.89;100317.31;1713031;82;21307;-80
2023/01/05 03:50:31;;;;;;;7.78;5.42;;;;;;;3.26;76.67;100309.56;1716675;82;21212;-80
2023/01/05 03:53:38;;;;;;;9.75;4.83;;;;;;;3.12;76.96;100309.02;1723939;82;21232;-80
2023/01/05 03:56:44;;;;;;;9.58;4.75;;;;;;;3.08;77.06;100306.56;1714904;82;21863;-78
2023/01/05 03:59:51;;;;;;;5.87;4.47;;;;;;;3.13;77.17;100303.47;1729267;82;21211;-78
2023/01/05 04:02:59;;;;;;;7.12;4.55;;;;;;;3.26;76.84;100289.29;1731641;81;21276;-79
2023/01/05 04:06:04;;;;;;;7.17;4.45;;;;;;;3.21;77.04;100289.33;1718032;82;21255;-79
2023/01/05 04:09:11;;;;;;;6.80;4.40;;;;;;;2.99;77.77;100280.80;1729480;82;21243;-79
2023/01/05 04:12:17;;;;;;;10.45;5.15;;;;;;;3.07;78.02;100289.13;1723525;82;21925;-78
2023/01/05 04:15:23;;;;;;;8.18;5.42;;;;;;;3.19;77.86;100283.17;1710371;82;21207;-79
2023/01/05 04:18:29;;;;;;;15.40;7.28;;;;;;;3.36;77.31;100276.34;1717627;81;21235;-80
2023/01/05 04:21:35;;;;;;;16.48;8.95;;;;;;;3.35;77.36;100275.49;1720518;82;21227;-78
2023/01/05 04:24:41;;;;;;;15.20;7.92;;;;;;;3.26;77.65;100276.27;1731491;82;21247;-78
2023/01/05 04:27:48;;;;;;;17.27;8.93;;;;;;;3.22;78.04;100274.81;1715418;81;21806;-78
2023/01/05 04:30:59;;;;;;;15.83;8.23;;;;;;;3.26;78.31;100277.13;1710530;82;21227;-78
2023/01/05 04:34:07;;;;;;;16.05;7.25;;;;;;;3.29;78.37;100273.28;1716353;82;21228;-78
2023/01/05 04:37:14;;;;;;;13.05;6.40;;;;;;;3.34;78.37;100273.78;1719929;81;21241;-77
2023/01/05 04:40:20;;;;;;;12.73;6.85;;;;;;;3.33;78.74;100272.04;1723507;82;21229;-80
2023/01/05 04:43:26;;;;;;;11.25;6.67;;;;;;;3.41;78.69;100267.34;1721262;81;21382;-77
2023/01/05 04:46:32;;;;;;;11.90;6.53;;;;;;;3.21;79.31;100255.03;1720501;82;21227;-79
2023/01/05 04:49:37;;;;;;;10.93;5.80;;;;;;;3.16;80.37;100253.72;1714252;82;21803;-79
2023/01/05 04:52:44;;;;;;;10.03;4.92;;;;;;;3.23;80.69;100260.30;1718556;82;21241;-79
2023/01/05 04:55:53;;;;;;;6.75;4.33;;;;;;;3.37;80.56;100251.02;1738226;82;21231;-79
2023/01/05 04:59:00;;;;;;;9.83;4.65;;;;;;;3.32;80.50;100231.98;1725519;81;21762;-80
2023/01/05 05:02:07;;;;;;;9.20;4.35;;;;;;;3.31;80.59;100229.42;1722380;81;21200;-81
2023/01/05 05:05:13;;;;;;;10.55;4.05;;;;;;;3.41;80.69;100223.58;1724063;82;21195;-78
2023/01/05 05:08:20;;;;;;;7.33;4.53;;;;;;;3.30;81.04;100220.46;1724036;82;21219;-77
2023/01/05 05:11:27;;;;;;;5.00;3.98;;;;;;;3.48;80.43;100224.78;1719033;81;21212;-77
2023/01/05 05:14:33;;;;;;;7.42;3.85;;;;;;;3.43;80.66;100226.14;1717320;82;21284;-78
2023/01/05 05:17:39;;;;;;;4.75;3.65;;;;;;;3.32;81.05;100224.38;1713821;82;21215;-78
2023/01/05 05:20:49;;;;;;;5.42;3.80;;;;;;;3.40;80.75;100219.67;1725562;82;21229;-78
2023/01/05 05:23:56;;;;;;;7.87;3.98;;;;;;;3.37;80.69;100208.61;1727371;81;21232;-78
2023/01/05 05:27:05;;;;;;;7.90;3.67;;;;;;;3.35;80.81;100204.34;1712689;82;21228;-80
2023/01/05 05:30:13;;;;;;;5.50;3.62;;;;;;;3.36;80.85;100193.88;1721369;81;21215;-77
2023/01/05 05:33:18;;;;;;;6.28;4.03;;;;;;;3.32;81.03;100187.38;1723234;82;21225;-78
2023/01/05 05:36:24;;;;;;;6.55;3.60;;;;;;;3.44;80.79;100171.09;1727011;81;21761;-80
2023/01/05 05:39:31;;;;;;;5.35;3.58;;;;;;;3.57;80.29;100168.50;1716527;82;21303;-78
2023/01/05 05:42:37;;;;;;;5.42;3.52;;;;;;;3.61;79.60;100166.89;1714073;82;21196;-78
2023/01/05 05:45:42;;;;;;;4.85;3.20;;;;;;;3.43;79.75;100155.84;1715343;82;21268;-78
2023/01/05 05:48:48;;;;;;;7.05;3.47;;;;;;;3.46;79.40;100160.98;1714255;82;21233;-78
2023/01/05 05:51:54;;;;;;;4.40;3.10;;;;;;;3.44;79.55;100154.88;1718492;81;21224;-78
2023/01/05 05:55:00;;;;;;;5.30;3.20;;;;;;;3.43;79.65;100147.23;1708250;82;21229;-78
2023/01/05 05:58:06;;;;;;;7.40;3.83;;;;;;;3.36;79.54;100135.75;1718545;82;21268;-78
2023/01/05 06:01:13;;;;;;;5.97;3.83;;;;;;;3.47;79.25;100123.48;1714966;82;21259;-78
2023/01/05 06:04:18;;;;;;;5.40;3.52;;;;;;;3.50;79.07;100124.58;1715108;82;21208;-78
2023/01/05 06:07:24;;;;;;;8.73;3.72;;;;;;;3.43;78.89;100120.19;1724844;82;21236;-78
2023/01/05 06:10:31;;;;;;;9.75;4.00;;;;;;;3.49;78.62;100123.72;1703863;83;21830;-79
2023/01/05 06:13:36;;;;;;;7.12;4.03;;;;;;;3.46;78.68;100109.61;1739017;80;21218;-79
2023/01/05 06:16:41;;;;;;;7.30;4.25;;;;;;;3.41;79.02;100103.75;1761257;80;21781;-79
2023/01/05 06:19:47;;;;;;;6.30;4.47;;;;;;;3.42;79.29;100101.41;1747301;80;21221;-79
2023/01/05 06:22:54;;;;;;;5.35;3.52;;;;;;;3.45;79.19;100098.44;1749345;80;21232;-78
2023/01/05 06:26:00;;;;;;;6.15;3.37;;;;;;;3.49;79.47;100088.56;1711233;81;21267;-78
2023/01/05 06:29:05;;;;;;;6.00;3.47;;;;;;;3.68;79.02;100078.31;1711214;82;21216;-79
2023/01/05 06:32:10;;;;;;;5.28;3.33;;;;;;;3.73;78.73;100069.28;1697753;82;21287;-79
2023/01/05 06:35:16;;;;;;;5.28;3.60;;;;;;;3.71;78.50;100078.52;1715197;82;21227;-80
2023/01/05 06:38:23;;;;;;;7.80;3.80;;;;;;;3.73;78.49;100056.26;1708218;82;21160;-80
2023/01/05 06:41:29;;;;;;;7.95;4.03;;;;;;;3.75;78.43;100055.11;1716555;82;22324;-79
2023/01/05 06:44:41;;;;;;;7.40;3.75;;;;;;;3.84;77.83;100057.48;1711692;81;21272;-79
2023/01/05 06:47:53;;;;;;;6.92;3.62;;;;;;;3.87;78.00;100045.04;1719542;82;21443;-78
2023/01/05 06:51:09;;;;;;;6.55;3.65;;;;;;;3.87;77.93;100030.16;1690274;82;21220;-79
2023/01/05 06:54:17;;;;;;;4.90;3.50;;;;;;;3.90;78.02;100019.53;1708292;82;21225;-79
2023/01/05 06:57:35;;;;;;;6.62;4.45;;;;;;;4.05;77.43;100022.20;1710539;82;21596;-79
2023/01/05 07:00:49;;;;;;;8.68;5.03;;;;;;;4.12;76.84;99992.20;1702654;82;21206;-80
2023/01/05 07:03:56;;;;;;;7.92;4.97;;;;;;;4.07;76.84;100006.66;1696917;82;21832;-80
2023/01/05 07:07:04;;;;;;;10.15;4.90;;;;;;;4.13;76.66;99991.20;1722569;81;21209;-80
2023/01/05 07:10:05;;;;;;;7.62;4.35;;;;;;;4.15;76.82;100001.41;1715837;82;21267;-78
2023/01/05 07:13:15;;;;;;;8.00;4.42;;;;;;;4.25;76.68;100000.05;1731177;81;21224;-78
2023/01/05 07:16:20;;;;;;;7.08;4.80;;;;;;;4.44;76.29;99991.05;1722829;82;21212;-78
2023/01/05 07:19:25;;;;;;;8.28;5.08;;;;;;;4.52;76.01;99987.97;1711826;82;21340;-80
2023/01/05 07:22:31;;;;;;;9.58;5.08;;;;;;;4.68;75.74;99973.81;1708789;82;22128;-79
2023/01/05 07:25:45;;;;;;;7.00;4.37;;;;;;;4.62;75.77;99974.41;1723397;81;21293;-80
2023/01/05 07:28:50;;;;;;;9.48;5.28;;;;;;;4.64;76.01;99976.45;1702105;82;21295;-80
2023/01/05 07:31:56;;;;;;;10.98;5.08;;;;;;;4.73;75.91;99971.52;1662488;84;21314;-80
2023/01/05 07:35:01;;;;;;;7.87;4.97;;;;;;;4.64;76.41;99966.97;1675907;82;21306;-80
2023/01/05 07:38:07;;;;;;;7.85;5.08;;;;;;;4.88;75.80;99956.98;1664915;84;21231;-80
2023/01/05 07:43:38;;;;;;;9.78;5.15;;;;;;;4.83;75.66;99938.45;1704789;83;21262;-80
2023/01/05 07:46:44;;;;;;;9.45;5.03;;;;;;;4.82;75.76;99938.11;1695058;82;21251;-79
2023/01/05 07:49:50;;;;;;;8.58;5.08;;;;;;;4.80;75.93;99933.36;1709056;82;21543;-80
2023/01/05 07:55:22;;;;;;;8.88;4.80;;;;;;;4.71;76.28;99930.17;1723715;82;21238;-79
2023/01/05 07:58:28;;;;;;;6.58;4.58;;;;;;;4.70;76.02;99928.95;1709744;80;21204;-80
2023/01/05 08:04:00;;;;;;;9.18;4.83;;;;;;;4.88;75.88;99906.84;1732067;82;21242;-80
2023/01/05 08:07:10;;;;;;;9.08;4.97;;;;;;;4.92;75.80;99904.19;1734730;82;21254;-80
2023/01/05 08:10:28;;;;;;;8.15;3.85;;;;;;;4.88;76.10;99891.44;1721590;81;21240;-80
2023/01/05 08:16:58;;;;;;;7.08;4.47;;;;;;;4.87;76.45;99878.89;1669613;84;21287;-79
2023/01/05 08:20:04;;;;;;;9.30;5.60;;;;;;;4.96;76.44;99865.45;1721197;81;21292;-78
2023/01/05 08:23:10;;;;;;;6.95;4.58;;;;;;;5.04;76.23;99859.62;1717136;81;21779;-78
2023/01/05 08:26:22;;;;;;;10.10;5.33;;;;;;;5.16;75.98;99847.20;1706949;80;21288;-78
2023/01/05 08:29:27;;;;;;;8.00;4.50;;;;;;;5.26;75.83;99839.34;1713119;81;21259;-79
2023/01/05 08:32:33;;;;;;;8.65;4.65;;;;;;;5.27;75.76;99826.63;1679799;82;21319;-81
2023/01/05 08:35:39;;;;;;;12.05;5.90;;;;;;;5.23;76.01;99821.20;1679683;83;21254;-81
2023/01/05 08:38:50;;;;;;;8.73;5.35;;;;;;;5.17;76.22;99806.88;1657407;84;21244;-80
2023/01/05 08:41:55;;;;;;;8.40;5.70;;;;;;;5.26;76.40;99791.89;1660421;85;21776;-81
2023/01/05 08:45:00;;;;;;;10.90;5.65;;;;;;;5.30;76.30;99784.30;1673899;85;21221;-80
2023/01/05 08:48:05;;;;;;;8.05;5.22;;;;;;;5.24;76.61;99769.52;1666685;84;21304;-79
2023/01/05 08:51:11;;;;;;;10.72;5.90;;;;;;;5.27;76.76;99760.20;1671625;85;21256;-80
2023/01/05 08:54:16;;;;;;;12.80;6.25;;;;;;;5.28;76.88;99750.57;1657256;85;21253;-79
2023/01/05 08:57:22;;;;;;;11.88;5.90;;;;;;;5.17;77.47;99745.37;1661573;84;21252;-80
2023/01/05 09:00:28;;;;;;;14.43;5.83;;;;;;;5.22;77.50;99739.00;1667363;84;21264;-80
2023/01/05 09:06:03;;;;;;;15.90;6.17;;;;;;;5.27;77.68;99720.88;1689931;83;21291;-80
2023/01/05 09:09:09;;;;;;;9.73;6.08;;;;;;;5.27;78.15;99723.59;1676387;84;21876;-79
2023/01/05 09:12:14;;;;;;;10.10;6.22;;;;;;;5.20;78.77;99717.95;1693984;83;21265;-79
2023/01/05 09:15:20;;;;;;;9.33;5.70;;;;;;;5.28;79.08;99709.89;1641238;84;21799;-80
2023/01/05 09:23:47;;;;;;;9.70;5.35;;;;;;;5.54;79.10;99683.29;1678993;84;21300;-79
2023/01/05 09:26:53;;;;;;;11.65;5.20;;;;;;;5.61;79.19;99680.30;1646636;83;21336;-80
2023/01/05 09:32:25;;;;;;;8.40;4.70;;;;;;;5.94;79.24;99661.52;1698964;83;22299;-80
2023/01/05 09:35:30;;;;;;;8.90;4.80;;;;;;;5.87;79.46;99649.90;1693207;82;21268;-79
2023/01/05 09:38:37;;;;;;;8.63;5.03;;;;;;;5.99;79.49;99636.09;1671656;84;21264;-79
2023/01/05 09:41:53;;;;;;;10.25;5.50;;;;;;;5.94;80.05;99634.38;1660944;84;22431;-79
2023/01/05 09:45:01;;;;;;;8.08;5.12;;;;;;;5.87;80.59;99625.47;1649442;85;21307;-79
2023/01/05 09:48:06;;;;;;;11.05;5.58;;;;;;;6.06;80.91;99619.48;1665225;84;21233;-79
2023/01/05 09:51:12;;;;;;;7.80;4.78;;;;;;;6.19;80.76;99604.08;1689208;83;21302;-79
2023/01/05 09:54:23;;;;;;;8.33;5.47;;;;;;;6.19;81.18;99598.66;1680328;83;21236;-80
2023/01/05 10:00:02;;;;;;;10.95;5.17;;;;;;;6.31;81.40;99581.89;1723320;82;21258;-79
2023/01/05 10:05:55;;;;;;;8.18;5.25;;;;;;;6.39;81.78;99562.02;1696451;82;21216;-79
2023/01/05 10:09:01;;;;;;;12.82;5.70;;;;;;;6.42;81.83;99551.34;1693750;82;22102;-79
2023/01/05 10:15:56;;;;;;;10.63;5.40;;;;;;;6.21;82.49;99534.15;1633103;86;21267;-79
2023/01/05 10:19:02;;;;;;;12.40;5.97;;;;;;;6.18;83.15;99520.41;1654232;86;21374;-78
2023/01/05 10:22:34;;;;;;;11.75;5.50;;;;;;;6.19;83.23;99515.31;1633779;86;21795;-78
2023/01/05 10:25:50;;;;;;;11.97;6.47;;;;;;;6.24;83.31;99518.38;1677953;83;21789;-78
2023/01/05 10:29:05;;;;;;;9.65;5.90;;;;;;;6.23;83.82;99514.48;1704657;81;21231;-78
2023/01/05 10:35:11;;;;;;;8.85;5.20;;;;;;;6.14;84.76;99497.32;1713697;81;21285;-79
2023/01/05 10:41:21;;;;;;;11.60;6.33;;;;;;;6.18;85.45;99476.13;1711506;81;21858;-79
2023/01/05 10:45:02;;;;;;;11.88;6.65;;;;;;;6.11;85.68;99461.84;1718433;81;21279;-79
2023/01/05 10:50:48;;;;;;;10.82;6.22;;;;;;;6.24;86.34;99453.71;1725744;82;21262;-79
2023/01/05 10:56:28;;;;;;;10.50;6.08;;;;;;;6.10;87.52;99447.93;1710238;81;21211;-79
2023/01/05 10:59:33;;;;;;;12.78;6.08;;;;;;;6.14;88.32;99448.45;1696920;83;21208;-77
2023/01/05 11:02:41;;;;;;;13.22;6.50;;;;;;;6.14;88.25;99431.64;1702031;81;21207;-78
2023/01/05 11:05:53;;;;;;;11.68;6.37;;;;;;;6.19;88.61;99423.50;1685174;82;21256;-78
2023/01/05 11:08:59;;;;;;;10.50;6.37;;;;;;;6.20;88.92;99420.61;1691937;82;21257;-78
2023/01/05 11:12:07;;;;;;;14.20;6.75;;;;;;;6.42;88.55;99419.59;1696600;82;21757;-78
2023/01/05 11:17:39;;;;;;;14.10;6.60;;;;;;;6.37;88.84;99397.86;1714303;82;21233;-79
2023/01/05 11:23:11;;;;;;;12.75;7.10;;;;;;;6.58;88.85;99384.23;1667899;84;21270;-78
2023/01/05 11:28:45;;;;;;;13.60;7.72;;;;;;;6.55;89.37;99377.81;1631526;86;21224;-79
2023/01/05 11:34:32;;;;;;;14.80;7.97;;;;;;;6.60;89.96;99360.47;1681453;84;21197;-78
2023/01/05 11:37:39;;;;;;;15.88;8.60;;;;;;;6.65;89.88;99345.84;1682703;83;21233;-79
2023/01/05 11:40:45;;;;;;;16.85;7.90;;;;;;;6.73;89.75;99332.24;1647525;85;21253;-78
2023/01/05 11:43:50;;;;;;;14.80;7.45;;;;;;;6.78;89.67;99343.43;1706253;82;21245;-78
2023/01/05 11:46:56;;;;;;;14.18;7.55;;;;;;;6.74;90.17;99342.59;1657900;82;21846;-78
2023/01/05 11:50:17;;;;;;;12.18;8.20;;;;;;;6.71;90.13;99332.91;1721382;82;21485;-79
2023/01/05 11:53:41;;;;;;;19.73;8.18;;;;;;;6.80;90.50;99333.73;1722158;81;21251;-79
2023/01/05 11:56:47;;;;;;;20.00;9.50;;;;;;;6.83;90.36;99335.59;1714682;81;21223;-79
2023/01/05 11:59:54;;;;;;;19.15;8.33;;;;;;;6.85;90.46;99322.66;1729608;82;21770;-79
2023/01/05 12:03:23;;;;;;;21.48;8.93;;;;;;;6.86;90.87;99318.06;1721362;82;21466;-79
2023/01/05 12:07:15;;;;;;;15.75;9.15;;;;;;;6.98;90.42;99305.79;1729610;81;21781;-79
2023/01/05 12:10:46;;;;;;;16.37;8.53;;;;;;;7.00;90.42;99299.65;1712545;82;21199;-78
2023/01/05 12:14:23;;;;;;;15.65;9.10;;;;;;;7.07;90.21;99286.20;1729230;82;21212;-78
2023/01/05 12:17:52;;;;;;;15.90;9.20;;;;;;;7.04;90.67;99272.95;1717174;81;21835;-77
2023/01/05 12:21:24;;;;;;;17.40;8.63;;;;;;;7.09;90.73;99267.83;1680177;83;21308;-79
2023/01/05 12:31:07;;;;;;;18.85;10.32;;;;;;;7.12;91.19;99260.68;1712614;80;21203;-79
2023/01/05 12:34:38;;;;;;;20.85;10.50;;;;;;;7.16;91.19;99255.22;1697714;82;21284;-79
2023/01/05 12:38:24;;;;;;;21.17;9.63;;;;;;;7.23;91.05;99243.94;1712318;82;21239;-79
2023/01/05 12:42:00;;;;;;;21.25;10.85;;;;;;;7.21;91.13;99247.36;1720699;82;21236;-79
2023/01/05 12:45:27;;;;;;;20.20;10.50;;;;;;;7.09;91.65;99243.35;1716245;82;21231;-78
2023/01/05 12:48:42;;;;;;;20.35;10.48;;;;;;;7.08;92.00;99239.80;1721077;82;22540;-78
2023/01/05 12:51:53;;;;;;;20.30;11.90;;;;;;;7.02;92.56;99232.36;1719467;82;21563;-78
2023/01/05 12:55:15;;;;;;;20.40;11.45;;;;;;;7.06;92.74;99235.58;1718243;81;21244;-78
2023/01/05 12:58:28;;;;;;;18.75;11.05;;;;;;;7.13;92.49;99236.53;1698250;81;21203;-78
2023/01/05 13:01:36;;;;;;;25.57;11.30;;;;;;;7.12;92.83;99223.97;1719755;81;21263;-79
2023/01/05 13:05:04;;;;;;;28.70;12.68;;;;;;;7.18;92.60;99223.23;1724067;81;21956;-78
2023/01/05 13:08:19;;;;;;;23.40;12.78;;;;;;;7.15;92.96;99227.18;1721722;81;21236;-78
2023/01/05 13:11:44;;;;;;;23.92;12.73;;;;;;;7.21;92.97;99224.77;1694984;81;21766;-79
2023/01/05 13:14:55;;;;;;;23.40;12.95;;;;;;;7.05;94.05;99218.39;1704728;82;21227;-79
2023/01/05 13:18:01;;;;;;;19.77;11.73;;;;;;;7.01;94.62;99227.08;1715552;82;21251;-79
2023/01/05 13:21:10;;;;;;;24.27;12.82;;;;;;;7.00;94.72;99211.80;1718189;82;21305;-79
2023/01/05 13:24:26;;;;;;;22.05;13.05;;;;;;;6.99;94.99;99212.84;1724308;82;21225;-79
2023/01/05 13:27:33;;;;;;;26.05;12.98;;;;;;;7.02;94.95;99220.12;1714959;82;21251;-78
2023/01/05 13:30:42;;;;;;;23.70;13.38;;;;;;;7.09;95.10;99214.28;1719398;81;21315;-78
2023/01/05 13:34:07;;;;;;;26.85;12.95;;;;;;;6.93;95.67;99212.20;1687284;83;21227;-78
2023/01/05 13:37:50;;;;;;;26.33;11.57;;;;;;;7.02;95.91;99209.77;1700339;83;21237;-79
2023/01/05 13:41:15;;;;;;;21.68;12.07;;;;;;;7.11;95.16;99203.25;1694623;82;21787;-79
2023/01/05 13:44:40;;;;;;;22.22;11.73;;;;;;;7.08;94.91;99192.72;1704883;82;21284;-79
2023/01/05 13:48:22;;;;;;;20.77;12.65;;;;;;;7.11;94.64;99195.09;1718313;82;21283;-78
2023/01/05 13:51:58;;;;;;;21.45;12.20;;;;;;;7.04;94.64;99191.39;1721293;82;21959;-78
2023/01/05 13:55:07;;;;;;;20.45;11.40;;;;;;;7.00;94.83;99187.33;1721510;82;21257;-79
2023/01/05 13:58:46;;;;;;;16.27;8.13;;;;;;;6.82;95.15;99187.13;1704868;82;21205;-78
2023/01/05 14:01:52;;;;;;;11.08;6.60;;;;;;;6.87;94.12;99178.44;1707584;81;21930;-78
2023/01/05 14:04:57;;;;;;;11.55;7.03;;;;;;;6.88;93.13;99167.89;1719363;82;21302;-78
2023/01/05 14:08:03;;;;;;;12.23;6.67;;;;;;;6.89;92.36;99162.78;1725174;82;21228;-78
2023/01/05 14:11:27;;;;;;;15.25;7.30;;;;;;;6.86;91.93;99153.62;1713651;82;21833;-79
2023/01/05 14:14:34;;;;;;;11.97;6.75;;;;;;;6.75;91.89;99156.25;1718319;82;21702;-79
2023/01/05 14:18:04;;;;;;;14.47;8.10;;;;;;;6.63;92.35;99150.88;1732661;82;21810;-80
2023/01/05 14:21:19;;;;;;;11.43;7.12;;;;;;;6.68;92.31;99148.98;1723149;81;21219;-78
2023/01/05 14:24:48;;;;;;;14.10;7.53;;;;;;;6.45;92.77;99142.18;1721642;82;21775;-79
2023/01/05 14:28:36;;;;;;;10.60;7.95;;;;;;;6.44;93.02;99144.53;1727762;82;21797;-78
2023/01/05 14:31:46;;;;;;;12.53;7.47;;;;;;;6.54;92.16;99141.95;1719333;82;21287;-78
2023/01/05 14:35:33;;;;;;;12.63;8.25;;;;;;;6.42;92.34;99128.42;1719967;81;21260;-78
2023/01/05 14:38:39;;;;;;;12.88;7.53;;;;;;;6.60;91.45;99122.72;1718411;82;21561;-78
2023/01/05 14:41:45;;;;;;;15.08;8.15;;;;;;;6.71;90.75;99113.30;1735587;82;21243;-78
2023/01/05 14:45:13;;;;;;;17.52;10.13;;;;;;;6.55;90.98;99110.19;1732407;81;21866;-78
2023/01/05 14:48:28;;;;;;;17.42;9.83;;;;;;;6.53;91.42;99108.16;1740286;81;21279;-78
2023/01/05 14:51:38;;;;;;;16.30;10.28;;;;;;;6.60;91.40;99103.70;1738976;81;21254;-78
2023/01/05 14:54:45;;;;;;;;;;;;;;;6.61;91.46;99104.03;1733505;81;21256;-79
2023/01/05 14:57:58;;;;;;;20.43;11.05;;;;;;;6.54;91.72;99101.69;1729298;81;20613;-79
2023/01/05 15:01:04;;;;;;;19.65;12.18;;;;;;;6.53;92.06;99090.49;1728342;81;21258;-78
2023/01/05 15:04:27;;;;;;;21.10;13.03;;;;;;;6.60;91.76;99090.96;1740149;81;21216;-78
2023/01/05 15:08:14;;;;;;;22.20;12.50;;;;;;;6.58;92.00;99081.28;1730898;82;21294;-79
2023/01/05 15:11:30;;;;;;;23.05;13.10;;;;;;;6.48;92.38;99069.81;1719697;82;21210;-77
2023/01/05 15:14:59;;;;;;;21.00;13.08;;;;;;;6.46;92.99;99063.22;1740920;81;21296;-78
2023/01/05 15:18:24;;;;;;;19.17;11.60;;;;;;;6.55;92.78;99054.50;1727776;82;22350;-78
2023/01/05 15:21:57;;;;;;;16.85;11.75;;;;;;;6.55;92.96;99043.63;1720877;81;21763;-78
2023/01/05 15:25:31;;;;;;;23.15;12.85;;;;;;;6.55;93.00;99032.25;1725359;81;21208;-78
2023/01/05 15:28:59;;;;;;;19.48;11.88;;;;;;;6.48;93.32;99024.48;1686800;83;21240;-78
2023/01/05 15:32:15;;;;;;;21.73;12.28;;;;;;;6.54;93.70;99029.69;1727341;82;21274;-78
2023/01/05 15:35:30;;;;;;;21.55;11.93;;;;;;;6.54;93.55;99016.98;1688946;84;21225;-78
2023/01/05 15:38:37;;;;;;;17.87;12.15;;;;;;;6.74;92.82;99014.60;1724718;82;21200;-78
2023/01/05 15:41:42;;;;;;;16.80;11.18;;;;;;;6.63;93.02;99015.02;1727612;82;21342;-78
2023/01/05 15:44:52;;;;;;;21.37;12.80;;;;;;;6.69;92.75;99008.88;1733771;81;21199;-79
2023/01/05 15:47:59;;;;;;;27.75;14.33;;;;;;;6.85;92.19;99003.80;1731816;81;21231;-78
2023/01/05 15:51:06;;;;;;;23.25;13.98;;;;;;;6.73;92.48;98988.46;1724221;82;21755;-78
2023/01/05 15:54:12;;;;;;;22.98;13.90;;;;;;;6.70;92.79;98990.69;1737445;81;21255;-78
2023/01/05 15:57:27;;;;;;;24.02;14.47;;;;;;;6.76;92.58;98990.79;1733090;82;21204;-79
2023/01/05 16:00:36;;;;;;;28.57;15.72;;;;;;;6.66;93.23;98991.05;1735924;81;21263;-78
2023/01/05 16:03:43;;;;;;;26.82;16.50;;;;;;;6.81;92.71;98988.88;1734774;81;21279;-78
2023/01/05 16:07:04;;;;;;;26.45;15.25;;;;;;;6.73;92.98;98983.03;1723820;81;21252;-79
2023/01/05 16:12:36;;;;;;;27.73;16.00;;;;;;;6.66;93.23;98973.39;1741863;81;21266;-80
2023/01/05 16:20:40;;;;;;;25.32;15.30;;;;;;;6.71;93.31;98976.07;1740628;80;21216;-80
2023/01/05 16:26:13;;;;;;;20.60;14.45;;;;;;;6.68;93.42;98985.94;1737347;82;21258;-80
2023/01/05 16:31:45;;;;;;;28.00;16.65;;;;;;;6.68;93.12;98976.43;1737159;82;21800;-80
2023/01/05 16:37:24;;;;;;;29.80;16.87;;;;;;;6.61;93.64;98982.61;1716537;82;21231;-81
2023/01/05 16:40:32;;;;;;;29.18;18.35;;;;;;;6.55;93.91;98992.86;1735799;82;21802;-79
2023/01/05 16:43:29;;;;;;;28.00;18.48;;;;;;;6.42;94.66;98976.32;1729255;81;21545;-78